METAR Data
IDs: Format: Raw Decoded Include TAF

Data at: 2106 UTC 24 Mar 2019

KAQO 242055Z AUTO 18008KT 10SM FEW039 27/17 A3004 RMK AO2
KAQO 242035Z AUTO 24003KT 10SM FEW033 27/17 A3004 RMK AO2
KAQO 242015Z AUTO 22005G14KT 10SM FEW033 27/17 A3005 RMK AO2
KAQO 241955Z AUTO 19010KT 10SM BKN031 26/17 A3006 RMK AO2
KAQO 241935Z AUTO 19007KT 020V030 10SM BKN031 26/17 A3007 RMK AO2
KAQO 241915Z AUTO 18007KT 10SM BKN029 BKN035 25/17 A3008 RMK AO2
KAQO 241855Z AUTO 17008KT 10SM SCT026 BKN032 25/17 A3009 RMK AO2
KAQO 241835Z AUTO 19009KT 10SM SCT024 SCT032 24/17 A3010 RMK AO2
KAQO 241815Z AUTO 21003KT 10SM FEW021 SCT028 BKN034 23/17 A3011 RMK AO2
KAQO 241755Z AUTO 21008KT 10SM BKN021 OVC030 22/17 A3012 RMK AO2
KAQO 241735Z AUTO 20008KT 10SM SCT019 OVC033 22/17 A3013 RMK AO2
KAQO 241715Z AUTO 18007KT 10SM SCT019 BKN030 OVC035 22/17 A3013 RMK AO2
KAQO 241655Z AUTO 20007KT 10SM SCT019 OVC028 21/17 A3014 RMK AO2
KAQO 241635Z AUTO 19006KT 10SM BKN019 OVC026 21/17 A3014 RMK AO2
KAQO 241615Z AUTO 20003KT 10SM BKN019 OVC025 21/17 A3014 RMK AO2
KAQO 241555Z AUTO 20007KT 10SM BKN019 OVC025 21/17 A3014 RMK AO2
KAQO 241535Z AUTO 17006KT 10SM OVC023 21/17 A3013 RMK AO2
KAQO 241515Z AUTO 17007KT 10SM OVC025 21/17 A3013 RMK AO2
KAQO 241455Z AUTO 16008KT 10SM BKN027 OVC032 21/17 A3013 RMK AO2
KAQO 241435Z AUTO 18010KT 10SM BKN032 21/17 A3013 RMK AO2
KAQO 241415Z AUTO 17006KT 10SM BKN034 21/17 A3012 RMK AO2
KAQO 241355Z AUTO 18007KT 10SM BKN034 20/17 A3011 RMK AO2
KAQO 241335Z AUTO 00000KT 10SM FEW021 BKN034 19/17 A3011 RMK AO2
KAQO 241315Z AUTO 00000KT 10SM SCT023 OVC032 18/17 A3011 RMK AO2
KAQO 241255Z AUTO 00000KT 10SM BKN024 OVC030 18/17 A3010 RMK AO2
KAQO 241235Z AUTO 00000KT 10SM BKN019 OVC028 18/17 A3009 RMK AO2
KAQO 241215Z AUTO 00000KT 10SM OVC019 18/16 A3009 RMK AO2
KAQO 241155Z AUTO 00000KT 10SM OVC019 18/16 A3008 RMK AO2
KAQO 241135Z AUTO 00000KT 10SM OVC017 18/16 A3008 RMK AO2
KAQO 241115Z AUTO 00000KT 10SM OVC019 18/16 A3008 RMK AO2
KAQO 241055Z AUTO 00000KT 10SM OVC019 18/16 A3008 RMK AO2
KAQO 241035Z AUTO 00000KT 10SM OVC019 18/16 A3007 RMK AO2
KAQO 241015Z AUTO 13003KT 10SM OVC021 18/16 A3007 RMK AO2
KAQO 240955Z AUTO 00000KT 10SM OVC021 18/16 A3007 RMK AO2
KAQO 240935Z AUTO 00000KT 10SM OVC023 18/16 A3007 RMK AO2
KAQO 240915Z AUTO 00000KT 10SM OVC023 18/16 A3007 RMK AO2
KAQO 240855Z AUTO 00000KT 10SM BKN018 OVC025 18/16 A3008 RMK AO2
KAQO 240835Z AUTO 00000KT 10SM OVC018 19/16 A3008 RMK AO2
KAQO 240815Z AUTO 00000KT 10SM OVC018 19/16 A3008 RMK AO2
KAQO 240755Z AUTO 00000KT 10SM OVC018 19/16 A3008 RMK AO2
KAQO 240735Z AUTO 17004KT 10SM OVC018 19/16 A3008 RMK AO2
KAQO 240715Z AUTO 18006KT 10SM OVC018 19/16 A3008 RMK AO2
KAQO 240655Z AUTO 00000KT 10SM OVC018 19/16 A3009 RMK AO2
KAQO 240635Z AUTO 00000KT 10SM OVC018 19/16 A3009 RMK AO2
KAQO 240615Z AUTO 15003KT 10SM OVC020 19/16 A3009 RMK AO2
KAQO 240555Z AUTO 15004KT 10SM OVC020 19/16 A3008 RMK AO2
KAQO 240535Z AUTO 18006KT 10SM OVC018 19/16 A3008 RMK AO2
KAQO 240515Z AUTO 00000KT 10SM OVC018 19/16 A3008 RMK AO2
KAQO 240455Z AUTO 00000KT 10SM OVC018 19/17 A3008 RMK AO2
KAQO 240435Z AUTO 14005KT 10SM OVC016 19/16 A3008 RMK AO2
KAQO 240415Z AUTO 17008KT 10SM OVC016 19/16 A3008 RMK AO2
KAQO 240355Z AUTO 16005KT 10SM OVC016 19/17 A3008 RMK AO2
KAQO 240335Z AUTO 15007KT 10SM OVC016 19/17 A3008 RMK AO2
KAQO 240315Z AUTO 13004KT 10SM BKN016 19/16 A3007 RMK AO2
KAQO 240255Z AUTO 13005KT 10SM FEW018 19/16 A3006 RMK AO2
KAQO 240235Z AUTO 14007KT 10SM CLR 19/16 A3005 RMK AO2
KAQO 240215Z AUTO 13007KT 10SM CLR 19/16 A3005 RMK AO2
KAQO 240155Z AUTO 15007G14KT 10SM FEW031 20/16 A3005 RMK AO2
KAQO 240135Z AUTO 14007KT 10SM SCT029 20/16 A3005 RMK AO2
KAQO 240115Z AUTO 14006KT 10SM SCT031 21/16 A3005 RMK AO2
KAQO 240055Z AUTO 15005KT 10SM BKN029 BKN035 21/16 A3005 RMK AO2
KAQO 240035Z AUTO 15008KT 10SM SCT028 BKN035 21/16 A3005 RMK AO2
KAQO 240015Z AUTO 14006KT 10SM FEW030 SCT045 22/17 A3005 RMK AO2
KAQO 232355Z AUTO 16003KT 10SM SCT028 BKN033 BKN045 22/17 A3005 RMK AO2 LTG DSNT NE
KAQO 232335Z AUTO 17011G15KT 10SM BKN028 OVC034 22/16 A3004 RMK AO2
KAQO 232315Z AUTO 17007KT 10SM BKN028 OVC034 22/17 A3004 RMK AO2 LTG DSNT NE
KAQO 232255Z AUTO 16007KT 10SM BKN028 OVC036 23/17 A3003 RMK AO2
KAQO 232235Z AUTO 18010KT 10SM BKN028 OVC036 23/17 A3003 RMK AO2
KAQO 232215Z AUTO 18011G17KT 10SM BKN026 BKN032 23/17 A3003 RMK AO2
KAQO 232155Z AUTO 17012G15KT 10SM SCT025 BKN033 23/17 A3002 RMK AO2 LTG DSNT NE
KAQO 232135Z AUTO 18012G15KT 10SM BKN025 OVC032 22/17 A3003 RMK AO2
KAQO 232115Z AUTO 17010G15KT 10SM BKN023 OVC030 22/17 A3004 RMK AO2
KAQO 232055Z AUTO 14010G14KT 10SM BKN022 BKN030 22/17 A3005 RMK AO2
KAQO 232035Z AUTO 18012G15KT 10SM SCT018 BKN034 22/18 A3006 RMK AO2 LTG DSNT NE
KAQO 232015Z AUTO 18012KT 10SM SCT018 SCT026 BKN036 21/18 A3007 RMK AO2
KAQO 231955Z AUTO 19008KT 10SM BKN019 BKN025 20/18 A3008 RMK AO2
KAQO 231935Z AUTO 18005KT 10SM BKN021 19/18 A3008 RMK AO2
KAQO 231915Z AUTO 18006KT 8SM FEW001 OVC017 18/18 A3009 RMK AO2
KAQO 231855Z AUTO 18006KT 1 1/2SM BR SCT001 BKN006 OVC017 18/17 A3010 RMK AO2
KAQO 231835Z AUTO 18004KT 1 1/2SM BR BKN001 BKN006 OVC010 18/17 A3011 RMK AO2
KAQO 231815Z AUTO 18005KT 1 3/4SM BR SCT001 BKN015 OVC019 18/17 A3011 RMK AO2
KAQO 231755Z AUTO 18006KT 1 3/4SM BR BKN001 BKN008 OVC017 18/17 A3012 RMK AO2
KAQO 231735Z AUTO 17006KT 2SM BR BKN001 OVC016 18/17 A3012 RMK AO2 LTG DSNT NE
KAQO 231715Z AUTO 17006KT 8SM OVC018 19/16 A3012 RMK AO2
KAQO 231655Z AUTO 19006KT 10SM OVC018 19/16 A3012 RMK AO2
KAQO 231635Z AUTO 00000KT 10SM OVC018 19/16 A3012 RMK AO2 LTG DSNT N AND NE
KAQO 231615Z AUTO 00000KT 10SM OVC016 19/16 A3012 RMK AO2 LTG DSNT N AND NE
KAQO 231555Z AUTO 13004KT 10SM OVC014 18/15 A3011 RMK AO2 LTG DSNT N AND NW
KAQO 231535Z AUTO 14006KT 10SM OVC014 18/15 A3011 RMK AO2 LTG DSNT N AND NE
KAQO 231515Z AUTO 13005KT 10SM OVC014 18/14 A3011 RMK AO2
KAQO 231455Z AUTO 12007KT 10SM OVC014 17/14 A3010 RMK AO2 LTG DSNT NE
KAQO 231435Z AUTO 12005KT 10SM OVC016 17/14 A3010 RMK AO2 LTG DSNT NE
KAQO 231415Z AUTO 12007KT 10SM OVC016 17/13 A3010 RMK AO2
KAQO 231355Z AUTO 13007KT 10SM BKN016 OVC022 17/13 A3009 RMK AO2 LTG DSNT N AND NE
KAQO 231335Z AUTO 12004KT 10SM OVC018 17/13 A3009 RMK AO2
KAQO 231315Z AUTO 13005KT 10SM OVC020 16/13 A3009 RMK AO2
KAQO 231255Z AUTO 12004KT 10SM OVC020 16/13 A3008 RMK AO2
KAQO 231235Z AUTO 00000KT 10SM OVC022 16/12 A3008 RMK AO2
KAQO 231215Z AUTO 00000KT 10SM OVC024 16/12 A3008 RMK AO2
KAQO 231155Z AUTO 00000KT 10SM OVC024 16/12 A3008 RMK AO2
KAQO 231135Z AUTO 00000KT 10SM OVC024 16/12 A3007 RMK AO2
KAQO 231115Z AUTO 00000KT 10SM OVC024 16/12 A3007 RMK AO2 LTG DSNT NE
KAQO 231055Z AUTO 00000KT 10SM OVC024 16/12 A3007 RMK AO2
KAQO 231035Z AUTO 00000KT 10SM OVC024 16/12 A3006 RMK AO2
KAQO 231015Z AUTO 00000KT 10SM SCT024 16/11 A3005 RMK AO2 LTG DSNT N
KAQO 230955Z AUTO 16004KT 10SM CLR 16/11 A3004 RMK AO2
KAQO 230935Z AUTO 14004KT 10SM CLR 16/11 A3002 RMK AO2
KAQO 230915Z AUTO 15006KT 10SM CLR 17/11 A3002 RMK AO2